Terminal Aerodrome Forecast
Issued by NWS Sioux Falls, SD

Home | Current Version | Previous Version | Text Only | Print | Product List | Glossary On
Versions: 1 2 3 4 5 6 7 8 9 10 11 12
000
FTUS43 KFSD 012322
TAFFSD
TAF
KFSD 012322Z 0200/0224 23011KT P6SM SKC
     FM020200 21009KT P6SM FEW100 SCT250
     FM020500 22006KT P6SM FEW250
     FM021300 26009KT P6SM SKC
     FM021600 33014G21KT P6SM SKC=

USA.gov is the U.S. government's official web portal to all federal, state and local government web resources and services.